Time;durP1;ratioP1;P1;durP2;ratioP2;P2;SDS_P1;SDS_P2;PMS_P1;PMS_P2;Temp;Humidity;BMP_temperature;BMP_pressure;BME280_temperature;BME280_humidity;BME280_pressure;Samples;Min_cycle;Max_cycle;Signal;HPM_P1;HPM_P2
2023/06/17 00:02:02;;;;;;;7.32;5.38;;;;;;;;;;5052062;28;20092;-73
2023/06/17 00:04:28;;;;;;;7.57;5.38;;;;;;;;;;5051977;28;20025;-72
2023/06/17 00:06:54;;;;;;;7.55;6.10;;;;;;;;;;5052288;28;20032;-73
2023/06/17 00:09:20;;;;;;;7.70;6.35;;;;;;;;;;5051823;28;20515;-72
2023/06/17 00:11:47;;;;;;;6.97;5.95;;;;;;;;;;5051948;28;20498;-72
2023/06/17 00:14:14;;;;;;;8.63;7.20;;;;;;;;;;5051579;28;20025;-72
2023/06/17 00:16:43;;;;;;;8.05;6.65;;;;;;;;;;5052114;28;20395;-72
2023/06/17 00:19:15;;;;;;;7.72;6.90;;;;;;;;;;5051662;28;20021;-72
2023/06/17 00:21:42;;;;;;;11.40;6.47;;;;;;;;;;5051872;28;20499;-72
2023/06/17 00:24:08;;;;;;;10.13;6.70;;;;;;;;;;5051651;28;20086;-73
2023/06/17 00:26:34;;;;;;;12.55;6.95;;;;;;;;;;5051963;28;20025;-72
2023/06/17 00:29:00;;;;;;;7.82;6.82;;;;;;;;;;5049934;28;20029;-73
2023/06/17 00:31:26;;;;;;;9.50;6.45;;;;;;;;;;5051622;28;20078;-73
2023/06/17 00:33:52;;;;;;;10.48;7.82;;;;;;;;;;5051486;28;20024;-72
2023/06/17 00:36:18;;;;;;;8.00;6.53;;;;;;;;;;5050180;28;20481;-72
2023/06/17 00:38:44;;;;;;;7.35;6.50;;;;;;;;;;5050021;28;20028;-72
2023/06/17 00:41:10;;;;;;;7.82;6.85;;;;;;;;;;5051483;28;20075;-72
2023/06/17 00:43:36;;;;;;;16.77;7.90;;;;;;;;;;5051572;28;20029;-72
2023/06/17 00:46:02;;;;;;;14.88;6.93;;;;;;;;;;5051123;28;20021;-72
2023/06/17 00:48:28;;;;;;;8.70;7.78;;;;;;;;;;5051351;28;20108;-72
2023/06/17 00:51:01;;;;;;;11.45;7.55;;;;;;;;;;5051345;28;20025;-72
2023/06/17 00:53:27;;;;;;;7.63;6.72;;;;;;;;;;5051371;28;20079;-72
2023/06/17 00:55:53;;;;;;;9.45;7.88;;;;;;;;;;5051627;28;20021;-72
2023/06/17 00:58:19;;;;;;;9.00;7.35;;;;;;;;;;5051185;28;20036;-72
2023/06/17 01:00:45;;;;;;;8.13;6.93;;;;;;;;;;5051339;28;20033;-72
2023/06/17 01:03:11;;;;;;;8.25;7.35;;;;;;;;;;5051472;28;20021;-72
2023/06/17 01:05:38;;;;;;;9.77;7.10;;;;;;;;;;5051278;28;20036;-72
2023/06/17 01:08:08;;;;;;;9.65;7.45;;;;;;;;;;5051288;28;20025;-72
2023/06/17 01:10:43;;;;;;;7.85;6.78;;;;;;;;;;5051280;28;20479;-72
2023/06/17 01:13:11;;;;;;;12.07;7.20;;;;;;;;;;5051279;28;20033;-73
2023/06/17 01:15:38;;;;;;;9.43;6.80;;;;;;;;;;5050804;28;20449;-73
2023/06/17 01:18:04;;;;;;;8.30;6.47;;;;;;;;;;5051438;28;20383;-72
2023/06/17 01:20:32;;;;;;;9.23;6.75;;;;;;;;;;5051281;28;20025;-72
2023/06/17 01:22:59;;;;;;;8.20;6.65;;;;;;;;;;5049981;28;20033;-72
2023/06/17 01:25:29;;;;;;;10.10;7.05;;;;;;;;;;5051215;28;20029;-72
2023/06/17 01:28:00;;;;;;;9.80;6.65;;;;;;;;;;5050994;28;20127;-72
2023/06/17 01:30:30;;;;;;;7.82;7.03;;;;;;;;;;5051181;28;20372;-73
2023/06/17 01:33:00;;;;;;;11.82;7.18;;;;;;;;;;5051127;28;20486;-73
2023/06/17 01:35:32;;;;;;;7.32;6.57;;;;;;;;;;5051272;28;20025;-73
2023/06/17 01:38:06;;;;;;;9.68;7.40;;;;;;;;;;5050942;28;20023;-72
2023/06/17 01:40:33;;;;;;;11.02;7.22;;;;;;;;;;5051008;28;20033;-72
2023/06/17 01:43:00;;;;;;;10.48;7.65;;;;;;;;;;5050872;28;20032;-72
2023/06/17 01:45:26;;;;;;;10.63;7.50;;;;;;;;;;5051002;28;20014;-73
2023/06/17 01:47:52;;;;;;;7.85;6.53;;;;;;;;;;5050741;28;20059;-73
2023/06/17 01:50:19;;;;;;;10.85;6.82;;;;;;;;;;5051088;28;20025;-73
2023/06/17 01:55:20;;;;;;;11.13;7.68;;;;;;;;;;5068352;22;20056;-76
2023/06/17 01:57:46;;;;;;;9.68;7.78;;;;;;;;;;5051879;28;20094;-75
2023/06/17 02:00:13;;;;;;;9.30;6.90;;;;;;;;;;5055308;28;20475;-76
2023/06/17 02:02:39;;;;;;;8.40;7.35;;;;;;;;;;5054904;28;20031;-75
2023/06/17 02:05:06;;;;;;;9.73;7.25;;;;;;;;;;5054619;28;20100;-75
2023/06/17 02:07:32;;;;;;;7.95;6.93;;;;;;;;;;5054495;28;20124;-75
2023/06/17 02:09:58;;;;;;;8.90;7.10;;;;;;;;;;5054415;28;20523;-75
2023/06/17 02:12:25;;;;;;;10.85;7.60;;;;;;;;;;5053142;28;20079;-75
2023/06/17 02:14:51;;;;;;;9.93;8.02;;;;;;;;;;5054188;28;20025;-76
2023/06/17 02:17:18;;;;;;;9.15;7.20;;;;;;;;;;5054164;28;20037;-76
2023/06/17 02:19:44;;;;;;;8.45;6.97;;;;;;;;;;5054200;28;20032;-76
2023/06/17 02:22:10;;;;;;;12.10;7.28;;;;;;;;;;5054340;28;20021;-76
2023/06/17 02:24:36;;;;;;;10.98;6.88;;;;;;;;;;5054130;28;20121;-76
2023/06/17 02:27:02;;;;;;;8.77;6.85;;;;;;;;;;5054020;28;20052;-76
2023/06/17 02:29:28;;;;;;;11.70;6.60;;;;;;;;;;5054122;28;20044;-76
2023/06/17 02:31:55;;;;;;;12.27;7.10;;;;;;;;;;5054023;28;20032;-76
2023/06/17 02:34:21;;;;;;;7.38;6.50;;;;;;;;;;5052680;28;20028;-76
2023/06/17 02:36:47;;;;;;;8.32;6.85;;;;;;;;;;5053937;28;20017;-76
2023/06/17 02:39:13;;;;;;;9.18;7.20;;;;;;;;;;5053826;28;20031;-76
2023/06/17 02:41:39;;;;;;;10.60;6.72;;;;;;;;;;5053822;28;20053;-76
2023/06/17 02:44:05;;;;;;;9.45;7.03;;;;;;;;;;5053873;28;20048;-76
2023/06/17 02:46:31;;;;;;;8.20;6.65;;;;;;;;;;5053968;28;20052;-76
2023/06/17 02:48:57;;;;;;;9.55;7.53;;;;;;;;;;5052382;28;20495;-77
2023/06/17 02:51:23;;;;;;;7.82;6.68;;;;;;;;;;5053783;28;20090;-77
2023/06/17 02:53:50;;;;;;;8.57;7.57;;;;;;;;;;5053592;28;20041;-76
2023/06/17 02:56:16;;;;;;;8.70;6.45;;;;;;;;;;5052585;28;20025;-77
2023/06/17 02:58:45;;;;;;;8.05;7.22;;;;;;;;;;5053697;28;20025;-76
2023/06/17 03:01:12;;;;;;;8.32;7.43;;;;;;;;;;5053548;28;20399;-76
2023/06/17 03:03:41;;;;;;;9.15;6.13;;;;;;;;;;5053358;28;20025;-76
2023/06/17 03:06:07;;;;;;;8.80;6.78;;;;;;;;;;5053605;28;20029;-76
2023/06/17 03:08:34;;;;;;;10.02;6.68;;;;;;;;;;5053122;28;20078;-76
2023/06/17 03:11:00;;;;;;;6.85;6.18;;;;;;;;;;5053448;28;20021;-76
2023/06/17 03:13:27;;;;;;;7.28;6.57;;;;;;;;;;5053479;28;20067;-76
2023/06/17 03:15:53;;;;;;;7.78;5.85;;;;;;;;;;5053035;28;20017;-76
2023/06/17 03:18:21;;;;;;;7.43;6.55;;;;;;;;;;5052972;28;20103;-76
2023/06/17 03:20:47;;;;;;;9.02;6.13;;;;;;;;;;5053302;28;20470;-76
2023/06/17 03:23:15;;;;;;;11.38;6.80;;;;;;;;;;5053179;28;20064;-77
2023/06/17 03:25:41;;;;;;;14.98;6.72;;;;;;;;;;5053078;28;20116;-76
2023/06/17 03:28:07;;;;;;;7.00;6.00;;;;;;;;;;5052871;28;20116;-76
2023/06/17 03:30:33;;;;;;;9.93;6.30;;;;;;;;;;5053032;28;20104;-76
2023/06/17 03:33:00;;;;;;;7.10;5.88;;;;;;;;;;5052748;28;20017;-77
2023/06/17 03:35:26;;;;;;;16.90;6.72;;;;;;;;;;5052926;28;20048;-76
2023/06/17 03:37:52;;;;;;;6.22;5.53;;;;;;;;;;5052734;28;20041;-76
2023/06/17 03:40:18;;;;;;;8.35;6.22;;;;;;;;;;5052865;28;20451;-76
2023/06/17 03:42:44;;;;;;;8.88;6.25;;;;;;;;;;5052832;28;20021;-76
2023/06/17 03:45:10;;;;;;;7.47;5.50;;;;;;;;;;5052874;28;20032;-76
2023/06/17 03:47:36;;;;;;;8.63;5.53;;;;;;;;;;5052705;28;20018;-76
2023/06/17 03:50:02;;;;;;;7.18;5.68;;;;;;;;;;5052648;28;20040;-76
2023/06/17 03:52:28;;;;;;;6.40;5.20;;;;;;;;;;5052800;28;20471;-76
2023/06/17 03:54:55;;;;;;;8.32;5.45;;;;;;;;;;5052575;28;20033;-77
2023/06/17 03:57:21;;;;;;;7.10;5.90;;;;;;;;;;5052479;28;20143;-76
2023/06/17 03:59:47;;;;;;;8.77;6.25;;;;;;;;;;5052419;28;20028;-76
2023/06/17 04:02:13;;;;;;;6.05;5.40;;;;;;;;;;5052677;28;20562;-76
2023/06/17 04:04:39;;;;;;;7.10;6.32;;;;;;;;;;5052420;28;20024;-76
2023/06/17 04:07:06;;;;;;;8.65;5.57;;;;;;;;;;5050844;28;20029;-76
2023/06/17 04:09:32;;;;;;;7.28;5.22;;;;;;;;;;5050767;28;20025;-76
2023/06/17 04:11:57;;;;;;;7.10;5.28;;;;;;;;;;5052218;28;20029;-76
2023/06/17 04:14:24;;;;;;;7.57;5.43;;;;;;;;;;5051827;28;20472;-76
2023/06/17 04:16:50;;;;;;;8.27;5.50;;;;;;;;;;5052156;28;20021;-76
2023/06/17 04:19:17;;;;;;;7.43;4.75;;;;;;;;;;5052072;28;20086;-76
2023/06/17 04:21:43;;;;;;;6.95;5.30;;;;;;;;;;5051411;28;20395;-76
2023/06/17 04:24:09;;;;;;;6.35;5.13;;;;;;;;;;5051971;28;20036;-76
2023/06/17 04:26:35;;;;;;;5.85;4.75;;;;;;;;;;5051515;28;20170;-76
2023/06/17 04:29:01;;;;;;;5.95;5.40;;;;;;;;;;5052301;28;20111;-76
2023/06/17 04:31:28;;;;;;;5.80;5.05;;;;;;;;;;5052236;28;20028;-76
2023/06/17 04:33:54;;;;;;;9.38;5.18;;;;;;;;;;5051952;28;20529;-76
2023/06/17 04:36:21;;;;;;;9.85;5.57;;;;;;;;;;5050698;28;20025;-76
2023/06/17 04:38:51;;;;;;;8.93;5.65;;;;;;;;;;5051516;28;20033;-76
2023/06/17 04:41:17;;;;;;;11.07;5.60;;;;;;;;;;5052052;28;20036;-76
2023/06/17 04:43:48;;;;;;;7.50;5.30;;;;;;;;;;5051762;28;20108;-76
2023/06/17 04:46:16;;;;;;;9.18;6.30;;;;;;;;;;5052040;28;20079;-76
2023/06/17 04:48:43;;;;;;;8.30;5.65;;;;;;;;;;5051609;28;20017;-76
2023/06/17 04:51:12;;;;;;;8.13;5.70;;;;;;;;;;5051828;28;20032;-76
2023/06/17 04:53:39;;;;;;;6.53;5.15;;;;;;;;;;5050144;28;20036;-76
2023/06/17 04:56:06;;;;;;;8.18;5.50;;;;;;;;;;5050444;28;20025;-76
2023/06/17 04:58:32;;;;;;;7.60;5.57;;;;;;;;;;5051224;28;20554;-75
2023/06/17 05:00:58;;;;;;;6.45;5.25;;;;;;;;;;5059236;28;20040;-76
2023/06/17 05:03:24;;;;;;;8.57;6.53;;;;;;;;;;5063353;28;20029;-75
2023/06/17 05:05:52;;;;;;;7.65;5.25;;;;;;;;;;5063666;28;20028;-75
2023/06/17 05:08:18;;;;;;;7.85;5.45;;;;;;;;;;5056911;28;20445;-77
2023/06/17 05:10:44;;;;;;;7.43;5.95;;;;;;;;;;5050518;28;20021;-76
2023/06/17 05:13:10;;;;;;;8.13;5.68;;;;;;;;;;5051596;28;20017;-76
2023/06/17 05:15:36;;;;;;;6.47;5.40;;;;;;;;;;5051259;28;20144;-76
2023/06/17 05:18:02;;;;;;;9.23;5.68;;;;;;;;;;5051127;28;20023;-76
2023/06/17 05:20:28;;;;;;;10.65;5.95;;;;;;;;;;5051459;28;20083;-76
2023/06/17 05:22:54;;;;;;;8.90;5.80;;;;;;;;;;5051467;28;20017;-76
2023/06/17 05:25:20;;;;;;;10.18;5.90;;;;;;;;;;5051682;28;20021;-76
2023/06/17 05:27:46;;;;;;;8.45;6.10;;;;;;;;;;5050858;28;20112;-76
2023/06/17 05:30:12;;;;;;;7.72;6.32;;;;;;;;;;5049617;28;20116;-76
2023/06/17 05:32:38;;;;;;;10.82;5.72;;;;;;;;;;5051734;28;20105;-76
2023/06/17 05:35:04;;;;;;;8.35;6.70;;;;;;;;;;5054821;28;20242;-76
2023/06/17 05:37:31;;;;;;;9.35;7.50;;;;;;;;;;5054776;28;20067;-76
2023/06/17 05:39:57;;;;;;;8.23;6.65;;;;;;;;;;5055141;28;20112;-76
2023/06/17 05:42:23;;;;;;;8.23;6.78;;;;;;;;;;5055013;28;20024;-76
2023/06/17 05:44:49;;;;;;;7.45;6.55;;;;;;;;;;5055313;28;20552;-76
2023/06/17 05:47:15;;;;;;;9.70;7.32;;;;;;;;;;5054555;28;20025;-76
2023/06/17 05:49:41;;;;;;;8.63;7.13;;;;;;;;;;5054657;28;20029;-76
2023/06/17 05:52:07;;;;;;;10.77;7.03;;;;;;;;;;5054697;28;20403;-76
2023/06/17 05:54:33;;;;;;;7.40;6.47;;;;;;;;;;5054508;28;20040;-76
2023/06/17 05:56:59;;;;;;;9.93;6.95;;;;;;;;;;5054645;28;20021;-75
2023/06/17 05:59:28;;;;;;;10.75;7.13;;;;;;;;;;5053347;28;20036;-76
2023/06/17 06:01:54;;;;;;;10.30;7.03;;;;;;;;;;5054472;28;20021;-76
2023/06/17 06:04:20;;;;;;;12.43;7.15;;;;;;;;;;5054480;28;20498;-75
2023/06/17 06:06:46;;;;;;;8.48;6.32;;;;;;;;;;5054404;28;20029;-76
2023/06/17 06:09:12;;;;;;;10.27;7.57;;;;;;;;;;5054228;28;20025;-76
2023/06/17 06:11:38;;;;;;;8.98;6.43;;;;;;;;;;5054523;28;20048;-76
2023/06/17 06:14:04;;;;;;;13.75;7.65;;;;;;;;;;5054026;28;20029;-76
2023/06/17 06:16:30;;;;;;;7.70;6.80;;;;;;;;;;5053110;28;20503;-76
2023/06/17 06:18:56;;;;;;;9.57;6.00;;;;;;;;;;5054027;28;20036;-76
2023/06/17 06:21:22;;;;;;;10.45;6.53;;;;;;;;;;5054265;28;20074;-76
2023/06/17 06:23:49;;;;;;;7.50;6.63;;;;;;;;;;5053998;28;20499;-76
2023/06/17 06:26:15;;;;;;;10.23;7.10;;;;;;;;;;5053954;28;20033;-76
2023/06/17 06:28:41;;;;;;;9.25;6.78;;;;;;;;;;5054258;28;20035;-77
2023/06/17 06:31:07;;;;;;;6.18;5.20;;;;;;;;;;5054168;28;20100;-76
2023/06/17 06:33:35;;;;;;;7.43;5.97;;;;;;;;;;5054349;28;20455;-76
2023/06/17 06:36:01;;;;;;;7.50;6.00;;;;;;;;;;5054083;28;20052;-77
2023/06/17 06:38:27;;;;;;;6.10;5.50;;;;;;;;;;5053516;28;20028;-77
2023/06/17 06:40:53;;;;;;;7.07;5.82;;;;;;;;;;5053888;28;20025;-76
2023/06/17 06:43:19;;;;;;;10.10;6.10;;;;;;;;;;5053123;28;20025;-76
2023/06/17 06:45:45;;;;;;;9.05;5.28;;;;;;;;;;5053935;28;20021;-76
2023/06/17 06:48:12;;;;;;;10.25;6.15;;;;;;;;;;5053404;28;20029;-76
2023/06/17 06:50:38;;;;;;;11.27;5.03;;;;;;;;;;5053763;28;20066;-77
2023/06/17 06:53:04;;;;;;;7.93;5.97;;;;;;;;;;5053384;28;20024;-77
2023/06/17 06:55:31;;;;;;;12.98;6.75;;;;;;;;;;5054060;28;20497;-76
2023/06/17 06:57:57;;;;;;;7.45;5.53;;;;;;;;;;5053538;28;20035;-77
2023/06/17 07:00:23;;;;;;;6.50;5.43;;;;;;;;;;5056248;28;20017;-77
2023/06/17 07:02:49;;;;;;;6.25;5.50;;;;;;;;;;5054704;28;20025;-76
2023/06/17 07:05:15;;;;;;;6.55;5.57;;;;;;;;;;5053588;28;20025;-76
2023/06/17 07:07:41;;;;;;;10.55;6.63;;;;;;;;;;5053024;28;20104;-76
2023/06/17 07:10:07;;;;;;;6.97;6.28;;;;;;;;;;5053209;28;20024;-75
2023/06/17 07:12:33;;;;;;;7.60;5.57;;;;;;;;;;5053314;28;20087;-76
2023/06/17 07:14:59;;;;;;;11.32;7.32;;;;;;;;;;5052986;28;20464;-76
2023/06/17 07:17:25;;;;;;;7.45;6.70;;;;;;;;;;5052906;28;20395;-77
2023/06/17 07:19:51;;;;;;;7.70;6.90;;;;;;;;;;5052688;28;20035;-76
2023/06/17 07:22:17;;;;;;;16.50;7.40;;;;;;;;;;5053057;28;20032;-77
2023/06/17 07:24:43;;;;;;;10.57;7.03;;;;;;;;;;5053071;28;20037;-76
2023/06/17 07:27:10;;;;;;;8.70;7.35;;;;;;;;;;5051352;28;20086;-76
2023/06/17 07:29:36;;;;;;;8.05;7.32;;;;;;;;;;5052903;28;20033;-76
2023/06/17 07:32:02;;;;;;;9.50;7.32;;;;;;;;;;5052889;28;20096;-76
2023/06/17 07:34:28;;;;;;;8.27;7.40;;;;;;;;;;5052571;28;20028;-76
2023/06/17 07:36:54;;;;;;;9.50;7.32;;;;;;;;;;5052982;28;20395;-77
2023/06/17 07:39:20;;;;;;;15.68;7.68;;;;;;;;;;5052876;28;20067;-76
2023/06/17 07:41:56;;;;;;;11.63;7.10;;;;;;;;;;5052935;28;20071;-76
2023/06/17 07:44:22;;;;;;;11.30;7.47;;;;;;;;;;5052591;28;20031;-76
2023/06/17 07:46:48;;;;;;;10.80;7.40;;;;;;;;;;5052585;28;20029;-76
2023/06/17 07:49:14;;;;;;;11.23;8.50;;;;;;;;;;5052285;28;20029;-76
2023/06/17 07:51:41;;;;;;;9.88;8.77;;;;;;;;;;5052614;28;20049;-76
2023/06/17 07:54:07;;;;;;;11.45;8.68;;;;;;;;;;5053622;28;20059;-76
2023/06/17 07:56:33;;;;;;;12.57;7.68;;;;;;;;;;5051720;28;20021;-76
2023/06/17 07:58:59;;;;;;;9.60;7.68;;;;;;;;;;5052089;28;20017;-76
2023/06/17 08:01:25;;;;;;;10.10;7.88;;;;;;;;;;5052287;28;20032;-76
2023/06/17 08:03:51;;;;;;;13.43;8.15;;;;;;;;;;5052096;28;20519;-76
2023/06/17 08:06:17;;;;;;;9.20;7.03;;;;;;;;;;5052213;28;20029;-76
2023/06/17 08:08:43;;;;;;;8.65;7.68;;;;;;;;;;5051854;28;20403;-76
2023/06/17 08:11:09;;;;;;;10.25;8.07;;;;;;;;;;5052016;28;20036;-76
2023/06/17 08:13:36;;;;;;;11.27;7.50;;;;;;;;;;5051957;28;20493;-78
2023/06/17 08:16:02;;;;;;;11.27;8.35;;;;;;;;;;5052110;28;20033;-76
2023/06/17 08:18:28;;;;;;;15.73;10.63;;;;;;;;;;5050433;28;20226;-75
2023/06/17 08:20:55;;;;;;;10.80;8.43;;;;;;;;;;5052214;28;20052;-76
2023/06/17 08:23:21;;;;;;;9.63;8.60;;;;;;;;;;5052005;28;20056;-77
2023/06/17 08:25:49;;;;;;;13.85;8.60;;;;;;;;;;5051759;28;20240;-76
2023/06/17 08:28:15;;;;;;;11.82;8.23;;;;;;;;;;5051563;28;20032;-76
2023/06/17 08:30:41;;;;;;;13.73;9.45;;;;;;;;;;5051941;28;20395;-75
2023/06/17 08:33:07;;;;;;;15.30;9.73;;;;;;;;;;5050673;28;20032;-76
2023/06/17 08:35:33;;;;;;;12.27;9.05;;;;;;;;;;5051474;28;20023;-76
2023/06/17 08:37:59;;;;;;;20.20;8.80;;;;;;;;;;5050615;28;20538;-76
2023/06/17 08:40:27;;;;;;;11.70;9.15;;;;;;;;;;5050564;28;20111;-76
2023/06/17 08:42:59;;;;;;;10.82;8.60;;;;;;;;;;5056599;28;20033;-75
2023/06/17 08:45:26;;;;;;;10.55;9.13;;;;;;;;;;5057825;28;20255;-76
2023/06/17 08:47:52;;;;;;;16.98;9.15;;;;;;;;;;5058675;28;20075;-76
2023/06/17 08:50:18;;;;;;;12.82;9.13;;;;;;;;;;5058762;28;20036;-76
2023/06/17 08:52:45;;;;;;;11.85;8.57;;;;;;;;;;5057703;28;20479;-76
2023/06/17 08:55:11;;;;;;;10.80;8.15;;;;;;;;;;5054895;28;20025;-78
2023/06/17 08:57:37;;;;;;;11.65;8.48;;;;;;;;;;5054229;28;20036;-76
2023/06/17 09:00:04;;;;;;;10.98;8.07;;;;;;;;;;5053384;28;20036;-76
2023/06/17 09:02:31;;;;;;;10.07;7.22;;;;;;;;;;5051562;28;20096;-76
2023/06/17 09:04:57;;;;;;;8.55;6.88;;;;;;;;;;5051284;28;20025;-76
2023/06/17 09:07:23;;;;;;;12.55;6.88;;;;;;;;;;5053474;28;20025;-76
2023/06/17 09:09:54;;;;;;;9.90;6.85;;;;;;;;;;5055534;28;20537;-77
2023/06/17 09:12:22;;;;;;;9.70;6.25;;;;;;;;;;5056183;28;20100;-76
2023/06/17 09:14:48;;;;;;;7.88;6.78;;;;;;;;;;5055503;28;20491;-77
2023/06/17 09:17:34;;;;;;;8.43;6.45;;;;;;;;;;5055538;28;20032;-76
2023/06/17 09:20:10;;;;;;;8.35;6.88;;;;;;;;;;5054985;28;20510;-76
2023/06/17 09:22:38;;;;;;;9.38;7.35;;;;;;;;;;5055352;28;20025;-76
2023/06/17 09:25:04;;;;;;;9.65;7.65;;;;;;;;;;5055496;28;20021;-76
2023/06/17 09:27:30;;;;;;;13.00;7.97;;;;;;;;;;5055912;28;20036;-76
2023/06/17 09:30:06;;;;;;;11.65;7.30;;;;;;;;;;5053950;28;20029;-77
2023/06/17 09:32:39;;;;;;;9.25;8.13;;;;;;;;;;5055777;28;20391;-77
2023/06/17 09:35:06;;;;;;;11.77;8.27;;;;;;;;;;5054812;28;20082;-77
2023/06/17 09:37:32;;;;;;;9.80;7.45;;;;;;;;;;5055999;28;20025;-77
2023/06/17 09:39:59;;;;;;;10.75;8.07;;;;;;;;;;5055451;28;20036;-77
2023/06/17 09:42:32;;;;;;;8.20;6.80;;;;;;;;;;5055232;28;20025;-76
2023/06/17 09:45:03;;;;;;;8.82;7.35;;;;;;;;;;5054789;28;20076;-77
2023/06/17 09:47:38;;;;;;;7.97;6.93;;;;;;;;;;5054688;28;20036;-76
2023/06/17 09:50:06;;;;;;;9.45;6.97;;;;;;;;;;5054910;28;20029;-76
2023/06/17 09:52:35;;;;;;;10.23;7.32;;;;;;;;;;5054876;28;20028;-76
2023/06/17 09:55:02;;;;;;;8.35;6.78;;;;;;;;;;5054712;28;20128;-76
2023/06/17 09:57:33;;;;;;;10.27;6.82;;;;;;;;;;5054544;28;20111;-76
2023/06/17 10:00:00;;;;;;;;;;;;;;;;;;5055248;28;20017;-76
2023/06/17 10:02:27;;;;;;;7.22;5.45;;;;;;;;;;5053469;28;19905;-76
2023/06/17 10:04:53;;;;;;;7.07;5.50;;;;;;;;;;5054414;28;20112;-76
2023/06/17 10:07:22;;;;;;;7.97;5.82;;;;;;;;;;5054255;28;20025;-76
2023/06/17 10:09:48;;;;;;;8.32;5.40;;;;;;;;;;5054310;28;20029;-76
2023/06/17 10:12:14;;;;;;;7.75;6.13;;;;;;;;;;5054137;28;20100;-76
2023/06/17 10:14:41;;;;;;;6.93;5.10;;;;;;;;;;5054129;28;20054;-76
2023/06/17 10:17:09;;;;;;;7.80;5.82;;;;;;;;;;5053886;28;20032;-76
2023/06/17 10:19:36;;;;;;;7.97;6.30;;;;;;;;;;5053315;28;20037;-76
2023/06/17 10:22:04;;;;;;;7.60;5.97;;;;;;;;;;5052839;28;20036;-76
2023/06/17 10:24:31;;;;;;;10.45;6.22;;;;;;;;;;5054453;28;20053;-76
2023/06/17 10:27:02;;;;;;;9.38;6.88;;;;;;;;;;5054581;28;20028;-76
2023/06/17 10:29:28;;;;;;;8.43;6.95;;;;;;;;;;5054627;28;20100;-77
2023/06/17 10:31:54;;;;;;;10.00;6.88;;;;;;;;;;5054404;28;20021;-77
2023/06/17 10:34:22;;;;;;;8.82;6.63;;;;;;;;;;5054023;28;20031;-76
2023/06/17 10:36:52;;;;;;;8.88;6.03;;;;;;;;;;5053938;28;20071;-76
2023/06/17 10:39:18;;;;;;;6.88;5.60;;;;;;;;;;5053067;28;20024;-76
2023/06/17 10:41:44;;;;;;;9.10;6.22;;;;;;;;;;5051402;28;20035;-75
2023/06/17 10:44:32;;;;;;;7.75;6.50;;;;;;;;;;5055830;28;20033;-75
2023/06/17 10:46:59;;;;;;;8.82;7.25;;;;;;;;;;5056862;28;20025;-74
2023/06/17 10:49:25;;;;;;;11.02;8.02;;;;;;;;;;5054643;28;20052;-75
2023/06/17 10:52:03;;;;;;;8.07;6.60;;;;;;;;;;5052602;28;20091;-76
2023/06/17 10:54:33;;;;;;;8.32;7.35;;;;;;;;;;5053010;28;20029;-75
2023/06/17 10:57:04;;;;;;;10.27;7.20;;;;;;;;;;5053416;28;20091;-74
2023/06/17 10:59:31;;;;;;;8.70;6.63;;;;;;;;;;5053431;28;20056;-74
2023/06/17 11:02:06;;;;;;;8.43;6.65;;;;;;;;;;5053255;28;20494;-76
2023/06/17 11:04:33;;;;;;;8.27;6.90;;;;;;;;;;5052432;28;20029;-75
2023/06/17 11:06:59;;;;;;;7.20;6.50;;;;;;;;;;5052778;28;20545;-75
2023/06/17 11:09:28;;;;;;;7.63;6.82;;;;;;;;;;5052656;28;20036;-74
2023/06/17 11:11:55;;;;;;;7.25;5.82;;;;;;;;;;5051774;28;20078;-75
2023/06/17 11:14:21;;;;;;;7.40;4.78;;;;;;;;;;5050970;28;20052;-76
2023/06/17 11:16:49;;;;;;;7.32;5.50;;;;;;;;;;5051969;28;20562;-76
2023/06/17 11:19:15;;;;;;;5.97;4.50;;;;;;;;;;5050726;28;20025;-75
2023/06/17 11:21:41;;;;;;;6.28;4.00;;;;;;;;;;5052720;28;20104;-75
2023/06/17 11:24:09;;;;;;;4.60;3.80;;;;;;;;;;5053138;28;20025;-75
2023/06/17 11:26:35;;;;;;;4.50;4.05;;;;;;;;;;5053236;28;20025;-75
2023/06/17 11:29:02;;;;;;;7.40;4.38;;;;;;;;;;5052872;28;20100;-75
2023/06/17 11:31:28;;;;;;;8.02;4.13;;;;;;;;;;5052778;28;20025;-75
2023/06/17 11:33:59;;;;;;;5.65;4.32;;;;;;;;;;5049357;28;20098;-76
2023/06/17 11:36:28;;;;;;;9.13;4.77;;;;;;;;;;5033735;28;20025;-68
2023/06/17 11:38:57;;;;;;;6.35;4.20;;;;;;;;;;5032331;28;20032;-67
2023/06/17 11:41:23;;;;;;;7.22;4.38;;;;;;;;;;5032581;28;20033;-68
2023/06/17 11:43:50;;;;;;;6.65;4.57;;;;;;;;;;5030898;28;20036;-68
2023/06/17 11:46:23;;;;;;;8.68;4.50;;;;;;;;;;5030780;28;20021;-68
2023/06/17 11:48:49;;;;;;;5.55;4.38;;;;;;;;;;5031550;28;20094;-68
2023/06/17 11:51:16;;;;;;;8.05;4.55;;;;;;;;;;5032527;28;20108;-67
2023/06/17 11:53:44;;;;;;;4.63;4.00;;;;;;;;;;5030814;28;20064;-68
2023/06/17 11:56:10;;;;;;;8.50;4.53;;;;;;;;;;5032183;28;20489;-68
2023/06/17 11:58:39;;;;;;;10.30;4.63;;;;;;;;;;5031851;28;20052;-67
2023/06/17 12:01:05;;;;;;;6.78;4.65;;;;;;;;;;5032183;28;20492;-67
2023/06/17 12:03:32;;;;;;;8.20;4.60;;;;;;;;;;5031659;28;20147;-69
2023/06/17 12:05:58;;;;;;;6.82;4.78;;;;;;;;;;5033353;28;20083;-76
2023/06/17 12:08:26;;;;;;;6.07;4.10;;;;;;;;;;5042037;28;20049;-77
2023/06/17 12:10:52;;;;;;;6.75;4.15;;;;;;;;;;5047496;28;20021;-77
2023/06/17 12:13:18;;;;;;;5.40;4.88;;;;;;;;;;5042909;28;20033;-78
2023/06/17 12:15:44;;;;;;;6.18;5.22;;;;;;;;;;5040285;28;20033;-78
2023/06/17 12:18:13;;;;;;;5.97;5.20;;;;;;;;;;5039121;28;20032;-77
2023/06/17 12:20:48;;;;;;;4.72;4.05;;;;;;;;;;5038780;28;20364;-78
2023/06/17 12:23:14;;;;;;;6.30;4.25;;;;;;;;;;5038539;28;20454;-76
2023/06/17 12:25:40;;;;;;;8.18;5.70;;;;;;;;;;5033708;28;20021;-77
2023/06/17 12:28:06;;;;;;;7.88;5.45;;;;;;;;;;5037446;28;20506;-77
2023/06/17 12:30:33;;;;;;;7.90;5.43;;;;;;;;;;5036810;28;20021;-77
2023/06/17 12:32:59;;;;;;;7.20;5.97;;;;;;;;;;5041299;28;20037;-79
2023/06/17 12:35:25;;;;;;;9.05;6.15;;;;;;;;;;5047333;28;20024;-79
2023/06/17 12:37:54;;;;;;;7.88;6.25;;;;;;;;;;5052312;28;20028;-78
2023/06/17 12:40:20;;;;;;;10.30;6.63;;;;;;;;;;5052496;28;20073;-80
2023/06/17 12:42:46;;;;;;;10.15;6.70;;;;;;;;;;5051692;28;20085;-78
2023/06/17 12:45:12;;;;;;;9.82;6.80;;;;;;;;;;5049231;28;20033;-80
2023/06/17 12:47:39;;;;;;;10.13;6.75;;;;;;;;;;5051530;28;20025;-79
2023/06/17 12:50:08;;;;;;;13.60;6.93;;;;;;;;;;5047489;28;20045;-79
2023/06/17 12:52:34;;;;;;;7.95;7.00;;;;;;;;;;5041065;28;20109;-79
2023/06/17 12:55:01;;;;;;;9.55;6.70;;;;;;;;;;5043654;28;20101;-79
2023/06/17 12:57:30;;;;;;;8.00;7.00;;;;;;;;;;5041329;28;20030;-79
2023/06/17 12:59:56;;;;;;;8.05;7.10;;;;;;;;;;5042851;28;20476;-78
2023/06/17 13:02:22;;;;;;;7.47;6.78;;;;;;;;;;5033534;28;20052;-77
2023/06/17 13:04:48;;;;;;;9.68;6.30;;;;;;;;;;5031768;28;20083;-76
2023/06/17 13:07:14;;;;;;;6.65;5.97;;;;;;;;;;5030595;28;20407;-77
2023/06/17 13:09:40;;;;;;;10.25;6.55;;;;;;;;;;5031921;28;20020;-78
2023/06/17 13:12:07;;;;;;;7.20;6.50;;;;;;;;;;5033213;28;20025;-77
2023/06/17 13:14:34;;;;;;;9.57;6.20;;;;;;;;;;5034189;28;20032;-77
2023/06/17 13:17:00;;;;;;;7.40;6.25;;;;;;;;;;5034460;28;20028;-77
2023/06/17 13:19:27;;;;;;;7.22;6.53;;;;;;;;;;5042823;28;20029;-78
2023/06/17 13:21:53;;;;;;;9.20;6.40;;;;;;;;;;5043242;28;20017;-78
2023/06/17 13:24:20;;;;;;;11.68;6.50;;;;;;;;;;5040022;28;20041;-78
2023/06/17 13:26:46;;;;;;;9.15;6.47;;;;;;;;;;5039809;28;20045;-78
2023/06/17 13:29:12;;;;;;;7.32;5.80;;;;;;;;;;5039178;28;20049;-78
2023/06/17 13:31:39;;;;;;;10.02;6.32;;;;;;;;;;5038537;28;20041;-78
2023/06/17 13:34:06;;;;;;;6.75;6.05;;;;;;;;;;5039299;28;20500;-78
2023/06/17 13:36:32;;;;;;;8.30;6.47;;;;;;;;;;5038208;28;20033;-78
2023/06/17 13:38:58;;;;;;;10.50;5.85;;;;;;;;;;5039124;28;20035;-78
2023/06/17 13:41:30;;;;;;;6.63;5.90;;;;;;;;;;5038604;28;20029;-77
2023/06/17 13:43:56;;;;;;;6.35;5.25;;;;;;;;;;5038559;28;20488;-78
2023/06/17 13:46:22;;;;;;;8.45;6.10;;;;;;;;;;5039855;28;20488;-78
2023/06/17 13:48:50;;;;;;;8.93;5.40;;;;;;;;;;5039809;28;20380;-78
2023/06/17 13:51:16;;;;;;;7.28;5.38;;;;;;;;;;5040621;28;20480;-78
2023/06/17 13:53:42;;;;;;;10.70;5.60;;;;;;;;;;5039292;28;20048;-78
2023/06/17 13:56:08;;;;;;;12.18;6.53;;;;;;;;;;5063711;22;20042;-73
2023/06/17 13:58:34;;;;;;;8.20;5.85;;;;;;;;;;5033396;28;20033;-74
2023/06/17 14:01:00;;;;;;;8.38;6.13;;;;;;;;;;5034404;28;20026;-72
2023/06/17 14:03:27;;;;;;;14.73;6.93;;;;;;;;;;5034647;28;20030;-71
2023/06/17 14:05:53;;;;;;;9.88;7.40;;;;;;;;;;5034592;28;20029;-73
2023/06/17 14:08:19;;;;;;;11.13;8.10;;;;;;;;;;5034265;28;20100;-72
2023/06/17 14:10:45;;;;;;;43.75;13.20;;;;;;;;;;5034094;28;20553;-72
2023/06/17 14:13:12;;;;;;;22.90;20.25;;;;;;;;;;5034577;28;20041;-71
2023/06/17 14:15:38;;;;;;;31.88;28.48;;;;;;;;;;5034324;28;20034;-71
2023/06/17 14:18:04;;;;;;;47.90;38.50;;;;;;;;;;5034124;28;20022;-72
2023/06/17 14:20:31;;;;;;;46.83;38.65;;;;;;;;;;5034194;28;20468;-72
2023/06/17 14:22:58;;;;;;;33.28;29.77;;;;;;;;;;5034322;28;20025;-72
2023/06/17 14:25:24;;;;;;;45.47;36.72;;;;;;;;;;5032683;28;20036;-72
2023/06/17 14:27:51;;;;;;;39.78;35.75;;;;;;;;;;5033794;28;20411;-72
2023/06/17 14:30:17;;;;;;;31.25;28.00;;;;;;;;;;5034004;28;20025;-72
2023/06/17 14:32:44;;;;;;;24.48;20.83;;;;;;;;;;5033032;28;20091;-72
2023/06/17 14:35:12;;;;;;;12.93;11.60;;;;;;;;;;5034183;28;20105;-72
2023/06/17 14:37:39;;;;;;;12.77;11.48;;;;;;;;;;5033792;28;20018;-72
2023/06/17 14:40:05;;;;;;;10.98;9.40;;;;;;;;;;5033908;28;20109;-72